Blue Thunder Heliport

0WN6 · 华盛顿州, 美国

使用的METAR站距离机场15 NM。
罗盘
风向 的 风向 180° 直升机
风: 4 kt, 2 beaufort
0 ft 1.000 2.000 3.000 4.000 5.000
Cloud Cloud
FEW 1.400
Cloud Cloud
FEW 2.100
Cloud Cloud Cloud Cloud Cloud Cloud Cloud Cloud
OVC 2.900
METAR KBLI 290733Z AUTO 18004KT 9SM -RA FEW014 FEW021 OVC029 05/04 A2938 RMK AO2 P0002 T00500039 $

METAR Blue Thunder Heliport - 0WN6

Blue Thunder Heliport是,美国中的直升机场。 该机场位于纬度48,95339和经度-122,81799。 这个机场没有ICAO代码,我们使用US-E616作为参考。 该机场的本地机场标识(FAA LID)为0WN6。 机场在Seattle FIR中。

该航空气象观测是针对Bellingham International Airport在2024年2月28日 23:33, 当地时间进行的。

机场观察

风向为180°,速度为4 kt。

可见度为9 mi。

有几云在1.400 ft的高度, 几云在2.100 ft的高度 和 乌云密布在2.900 ft的高度。 破损或更高的上限为2.900 ft。

当前天气为光 雨。 温度为5 °C,阵风为2 °C。 露点为4 °C,相对湿度为93%。 海平面上的气压为29,38 inHg (QNH)。

白天

今天,太阳从06:53升起,在17:53降落。 这适用于Blue Thunder Heliport,世界夏令时可能有所不同。 当地时间与世界标准时间之间的时差为-8 小时。 当前,没有夏令时有效。

公司介绍

我们没有关于这个机场的公司信息。

体会

到Vliegles.nl去找飞行课程,跳伞和其他飞行体验。 浏览页面,了解Blue Thunder Heliport附近所有可用的活动。 你也可以使用搜索功能来寻找你所在地附近的特定飞行课程、跳伞或其他飞行体验。

乌云

1.400 ft FEW 几云
2.100 ft FEW 几云
2.900 ft OVC 乌云密布

温度 & 天气

天气 光 雨
温度 5,0 °C
露点 3,9 °C
相对湿度 93%
风寒 2 °C
Kp-index 1 (0-9)

评论

AO2自动气象站,可确定降水类型
P0002自上次观测以来,降雨量的水当量为0,02 inch (0,0 mm)。
T00500039温度为5,0 °C (41,0 °F),露点为3,9 °C (39,0 °F)
$该气象站需要维护

白天

日出
06:52 (6:51)
中午
12:22
日落
17:52

小工具

你想在你的网站上有一个关于Blue Thunder Heliport的当前航空天气(METAR)的小部件吗?

显示HTML代码
?>